Terminal Aerodrome Forecast
Issued by NWS Wilmington, NC

Home | Current Version | Previous Version | Text Only | Print | Product List | Glossary On
Versions: 1 2 3 4 5 6 7 8 9 10 11 12 13 14 15 16 17 18 19 20 21 22 23
000
FTUS42 KILM 261100
TAFLBT
TAF
KLBT 261127Z 2612/2712 VRB03KT 3SM BR BKN006
     FM261330 VRB04KT P6SM SCT015 BKN250
     FM261800 24006KT P6SM BKN040
     FM270000 VRB02KT P6SM SCT250
      TEMPO 2708/2711 4SM BR SCT005=

USA.gov is the U.S. government's official web portal to all federal, state and local government web resources and services.